Time;durP1;ratioP1;P1;durP2;ratioP2;P2;SDS_P1;SDS_P2;PMS_P1;PMS_P2;Temp;Humidity;BMP_temperature;BMP_pressure;BME280_temperature;BME280_humidity;BME280_pressure;Samples;Min_cycle;Max_cycle;Signal;HPM_P1;HPM_P2
2022/09/13 04:00:48;;;;;;;7.60;3.37;;;13.00;96.30;;;;;;5764541;23;20525;-77
2022/09/13 04:03:14;;;;;;;10.23;3.47;;;13.00;96.30;;;;;;4988059;28;20454;-77
2022/09/13 04:05:39;;;;;;;4.20;3.13;;;13.10;96.30;;;;;;4984704;28;20335;-77
2022/09/13 04:08:06;;;;;;;3.97;3.67;;;13.20;96.30;;;;;;4993275;28;20232;-77
2022/09/13 04:10:32;;;;;;;3.37;3.07;;;13.20;96.30;;;;;;4980751;28;20229;-77
2022/09/13 04:12:59;;;;;;;4.50;3.30;;;13.20;96.30;;;;;;4975584;28;20421;-77
2022/09/13 04:15:25;;;;;;;4.13;3.70;;;13.40;96.30;;;;;;4975626;28;20417;-78
2022/09/13 04:17:50;;;;;;;5.17;3.70;;;13.50;96.30;;;;;;4979464;28;20429;-77
2022/09/13 04:28:02;;;;;;;4.87;3.97;;;13.60;96.30;;;;;;5952835;23;20831;-77
2022/09/13 04:30:28;;;;;;;3.90;3.00;;;13.50;96.30;;;;;;4955939;28;20403;-76
2022/09/13 04:32:55;;;;;;;4.27;3.40;;;13.60;96.30;;;;;;4955935;28;20198;-78
2022/09/13 04:35:21;;;;;;;4.13;3.73;;;13.60;96.30;;;;;;4956499;28;20412;-76
2022/09/13 04:37:46;;;;;;;4.03;3.63;;;13.50;96.30;;;;;;4950217;28;20493;-75
2022/09/13 04:40:13;;;;;;;4.70;4.10;;;13.50;96.30;;;;;;4954508;28;20278;-77
2022/09/13 04:42:39;;;;;;;3.70;3.40;;;13.50;96.30;;;;;;4962030;28;20542;-76
2022/09/13 04:45:05;;;;;;;5.17;4.00;;;13.50;96.30;;;;;;4954111;28;20505;-77
2022/09/13 04:47:31;;;;;;;5.63;4.17;;;13.50;96.30;;;;;;4948225;28;20242;-76
2022/09/13 04:49:57;;;;;;;3.97;3.57;;;13.50;96.30;;;;;;4936197;29;20452;-76
2022/09/13 04:52:22;;;;;;;3.77;3.37;;;13.50;96.30;;;;;;4954809;29;20278;-77
2022/09/13 04:54:48;;;;;;;7.00;3.80;;;13.60;96.30;;;;;;4970308;28;20226;-77
2022/09/13 04:57:15;;;;;;;4.07;3.73;;;13.60;96.30;;;;;;4955305;28;20243;-77
2022/09/13 04:59:41;;;;;;;4.07;3.67;;;13.70;96.30;;;;;;4955229;28;20253;-77
2022/09/13 05:02:06;;;;;;;3.80;3.47;;;13.70;96.30;;;;;;4955238;28;20514;-76
2022/09/13 05:04:32;;;;;;;4.13;3.53;;;13.80;96.30;;;;;;4955262;29;20638;-77
2022/09/13 05:06:57;;;;;;;4.07;3.63;;;13.80;96.30;;;;;;4955047;29;20245;-77
2022/09/13 05:09:23;;;;;;;4.00;3.60;;;13.90;96.30;;;;;;4961948;28;20174;-76
2022/09/13 05:11:49;;;;;;;5.17;3.63;;;13.90;96.30;;;;;;4974395;28;20588;-76
2022/09/13 05:14:15;;;;;;;4.10;3.70;;;13.90;96.30;;;;;;4974345;28;20910;-76
2022/09/13 05:16:40;;;;;;;4.10;3.70;;;13.80;96.30;;;;;;4974337;28;20184;-77
2022/09/13 05:19:07;;;;;;;4.17;3.67;;;13.90;96.30;;;;;;4988738;28;20588;-76
2022/09/13 05:21:33;;;;;;;4.30;3.90;;;14.00;96.30;;;;;;4964002;28;20293;-76
2022/09/13 05:23:58;;;;;;;4.13;3.70;;;14.20;96.30;;;;;;4944128;29;20462;-77
2022/09/13 05:26:30;;;;;;;5.00;3.67;;;14.30;96.30;;;;;;4943691;29;20202;-78
2022/09/13 05:28:56;;;;;;;4.50;3.63;;;14.40;96.30;;;;;;4948253;29;20187;-78
2022/09/13 05:31:25;;;;;;;3.90;3.60;;;14.70;96.30;;;;;;4943495;29;20427;-77
2022/09/13 05:34:12;;;;;;;4.90;3.50;;;14.80;96.30;;;;;;4945160;29;20414;-77
2022/09/13 05:36:38;;;;;;;3.43;3.13;;;14.80;96.30;;;;;;4948027;29;20433;-77
2022/09/13 05:39:03;;;;;;;3.70;2.90;;;14.90;96.30;;;;;;4952827;29;20448;-76
2022/09/13 05:41:29;;;;;;;4.23;3.80;;;14.90;96.30;;;;;;4965523;28;20190;-76
2022/09/13 05:43:54;;;;;;;3.83;3.53;;;14.90;96.30;;;;;;4968726;28;21943;-76
2022/09/13 05:46:21;;;;;;;3.67;3.30;;;15.20;96.30;;;;;;4935280;29;20203;-75
2022/09/13 05:48:47;;;;;;;6.13;4.03;;;15.50;96.30;;;;;;4935014;29;20180;-75
2022/09/13 05:51:14;;;;;;;6.70;3.40;;;15.70;96.30;;;;;;4935280;29;20795;-75
2022/09/13 05:53:41;;;;;;;4.03;3.40;;;15.70;96.30;;;;;;4935305;29;20419;-76
2022/09/13 05:56:15;;;;;;;3.40;3.10;;;15.80;96.30;;;;;;4935229;29;20463;-76
2022/09/13 05:58:42;;;;;;;3.70;3.40;;;16.10;96.30;;;;;;4934493;29;20408;-76
2022/09/13 06:01:09;;;;;;;5.70;3.80;;;16.50;96.30;;;;;;4948945;29;20442;-76
2022/09/13 06:03:35;;;;;;;3.47;3.17;;;17.20;96.30;;;;;;4954283;29;20430;-76
2022/09/13 06:06:01;;;;;;;3.20;2.90;;;18.00;96.30;;;;;;4954257;29;21161;-76
2022/09/13 06:08:29;;;;;;;3.63;3.10;;;19.00;96.30;;;;;;4953895;29;21074;-76
2022/09/13 06:11:00;;;;;;;2.80;2.60;;;19.70;96.30;;;;;;4964538;28;20997;-77
2022/09/13 06:13:26;;;;;;;3.23;2.93;;;20.40;96.30;;;;;;4944493;29;20412;-76
2022/09/13 06:15:53;;;;;;;3.30;3.00;;;20.90;96.30;;;;;;4941835;29;20503;-77
2022/09/13 06:18:19;;;;;;;4.07;2.90;;;21.20;96.30;;;;;;4950173;29;20437;-76
2022/09/13 06:20:45;;;;;;;3.50;3.20;;;21.70;96.30;;;;;;4953997;29;20930;-76
2022/09/13 06:23:11;;;;;;;2.80;2.60;;;23.10;96.30;;;;;;4953599;29;20175;-77
2022/09/13 06:25:36;;;;;;;2.60;2.40;;;22.90;96.30;;;;;;4953993;29;20429;-77
2022/09/13 06:28:02;;;;;;;2.50;2.30;;;22.30;96.30;;;;;;4953550;29;20217;-77
2022/09/13 06:30:28;;;;;;;3.10;2.40;;;21.80;96.30;;;;;;4954020;29;20174;-78
2022/09/13 06:32:55;;;;;;;4.10;2.60;;;20.30;96.30;;;;;;4953908;29;20632;-76
2022/09/13 06:35:21;;;;;;;2.93;2.63;;;19.60;96.30;;;;;;4953894;29;20178;-76
2022/09/13 06:37:46;;;;;;;3.20;2.07;;;19.40;96.30;;;;;;4953780;29;20426;-76
2022/09/13 06:40:12;;;;;;;4.93;2.80;;;19.10;96.30;;;;;;4954594;28;20182;-77
2022/09/13 06:42:38;;;;;;;2.63;2.40;;;18.30;96.30;;;;;;4973136;28;20188;-76
2022/09/13 06:45:05;;;;;;;2.93;2.43;;;18.00;96.30;;;;;;4973147;28;21052;-76
2022/09/13 06:47:30;;;;;;;3.07;2.30;;;17.90;96.30;;;;;;4949736;28;20203;-78
2022/09/13 06:49:56;;;;;;;3.10;2.17;;;17.70;96.30;;;;;;4948593;29;20430;-76
2022/09/13 06:52:22;;;;;;;3.50;2.50;;;17.50;96.30;;;;;;4953773;29;20705;-76
2022/09/13 06:54:47;;;;;;;8.17;2.73;;;17.60;96.30;;;;;;4953731;29;20175;-76
2022/09/13 06:57:13;;;;;;;2.57;2.37;;;17.70;96.30;;;;;;4953763;29;20238;-77
2022/09/13 06:59:38;;;;;;;3.10;2.53;;;17.80;96.30;;;;;;4952184;29;20179;-76
2022/09/13 07:02:04;;;;;;;3.60;2.80;;;17.80;96.30;;;;;;4953727;29;20202;-76
2022/09/13 07:04:30;;;;;;;2.47;2.20;;;17.70;96.30;;;;;;4953722;29;20179;-76
2022/09/13 07:06:56;;;;;;;2.83;2.63;;;17.70;96.30;;;;;;4953645;29;20198;-76
2022/09/13 07:09:22;;;;;;;5.17;2.70;;;17.60;96.30;;;;;;4960282;28;20550;-76
2022/09/13 07:11:50;;;;;;;4.27;3.07;;;17.70;96.30;;;;;;4975490;28;20897;-76
2022/09/13 07:14:21;;;;;;;3.13;2.93;;;17.80;96.30;;;;;;4976500;28;20166;-77
2022/09/13 07:16:47;;;;;;;3.27;1.83;;;18.00;96.30;;;;;;4976544;28;20521;-78
2022/09/13 07:19:15;;;;;;;4.20;2.60;;;18.00;96.30;;;;;;4976385;28;20414;-77
2022/09/13 07:21:41;;;;;;;3.10;2.53;;;18.20;96.30;;;;;;4976587;28;20433;-76
2022/09/13 07:24:07;;;;;;;4.30;2.43;;;18.20;96.30;;;;;;4991453;28;20427;-77
2022/09/13 07:26:33;;;;;;;2.80;2.53;;;18.20;96.30;;;;;;4976522;28;20206;-77
2022/09/13 07:29:01;;;;;;;3.30;2.70;;;18.20;96.30;;;;;;4972684;28;20474;-77
2022/09/13 07:31:29;;;;;;;2.33;2.13;;;18.30;96.30;;;;;;4955644;29;20525;-79
2022/09/13 07:33:57;;;;;;;2.43;2.23;;;18.40;96.30;;;;;;4954492;29;20426;-77
2022/09/13 07:36:23;;;;;;;2.43;2.23;;;18.60;96.30;;;;;;4956638;28;20419;-78
2022/09/13 07:38:49;;;;;;;3.80;3.23;;;18.70;96.30;;;;;;4971681;28;20437;-75
2022/09/13 07:41:17;;;;;;;5.43;2.60;;;18.70;96.30;;;;;;4963933;28;20449;-76
2022/09/13 07:43:43;;;;;;;2.80;2.30;;;19.40;96.30;;;;;;4976069;28;20748;-76
2022/09/13 07:46:17;;;;;;;2.73;2.07;;;20.00;96.30;;;;;;4976047;28;20468;-76
2022/09/13 07:48:44;;;;;;;3.40;2.37;;;20.20;96.30;;;;;;4975809;28;20244;-76
2022/09/13 07:51:11;;;;;;;2.87;2.00;;;19.70;96.30;;;;;;4975940;28;20426;-76
2022/09/13 07:53:38;;;;;;;3.27;2.10;;;19.50;96.30;;;;;;4975756;28;20497;-75
2022/09/13 07:56:08;;;;;;;3.83;2.37;;;19.10;96.30;;;;;;4975868;28;20453;-75
2022/09/13 07:58:36;;;;;;;1.80;1.70;;;18.60;96.30;;;;;;4975612;28;20417;-76
2022/09/13 08:01:20;;;;;;;2.10;2.00;;;18.40;96.30;;;;;;4975993;28;20480;-76
2022/09/13 08:04:04;;;;;;;2.90;1.80;;;18.30;96.30;;;;;;4990891;28;20429;-76
2022/09/13 08:06:31;;;;;;;2.23;2.03;;;18.10;96.30;;;;;;4975704;28;20465;-75
2022/09/13 08:08:57;;;;;;;2.20;2.03;;;17.90;96.30;;;;;;4971916;28;20415;-76
2022/09/13 08:11:29;;;;;;;3.37;2.07;;;17.90;96.30;;;;;;4956336;28;20448;-76
2022/09/13 08:13:54;;;;;;;4.83;2.50;;;17.90;96.30;;;;;;4956435;29;20175;-76
2022/09/13 08:16:22;;;;;;;2.30;2.10;;;17.80;96.30;;;;;;4956330;29;20921;-75
2022/09/13 08:18:53;;;;;;;1.97;1.87;;;17.70;96.30;;;;;;4956213;28;20190;-76
2022/09/13 08:21:19;;;;;;;1.77;1.67;;;17.70;96.30;;;;;;4955696;28;20997;-76
2022/09/13 08:23:45;;;;;;;2.93;1.80;;;17.60;96.30;;;;;;4956319;29;20902;-76
2022/09/13 08:26:10;;;;;;;2.23;2.00;;;17.60;96.30;;;;;;4955911;28;20469;-75
2022/09/13 08:28:39;;;;;;;2.70;2.20;;;17.50;96.30;;;;;;4955406;29;20265;-76
2022/09/13 08:31:14;;;;;;;2.70;2.27;;;17.30;96.30;;;;;;4947320;29;20564;-76
2022/09/13 08:33:42;;;;;;;2.10;1.90;;;17.10;96.30;;;;;;4955915;29;20410;-76
2022/09/13 08:36:08;;;;;;;2.37;2.17;;;17.10;96.30;;;;;;4955917;29;21010;-78
2022/09/13 08:38:33;;;;;;;2.60;2.30;;;17.00;96.30;;;;;;4955643;29;20506;-77
2022/09/13 08:41:04;;;;;;;2.60;2.13;;;16.80;96.30;;;;;;4962828;28;20202;-78
2022/09/13 08:43:49;;;;;;;2.63;2.43;;;16.80;96.30;;;;;;4990114;28;20265;-77
2022/09/13 08:46:35;;;;;;;2.30;2.20;;;16.80;96.30;;;;;;4975082;28;20491;-77
2022/09/13 08:49:06;;;;;;;4.53;2.60;;;16.80;96.30;;;;;;4974905;28;20420;-78
2022/09/13 08:51:40;;;;;;;2.77;2.57;;;16.90;96.30;;;;;;4974966;28;20454;-78
2022/09/13 08:54:09;;;;;;;7.87;2.47;;;16.90;96.30;;;;;;4974801;28;20448;-76
2022/09/13 08:56:55;;;;;;;2.90;2.70;;;17.00;96.30;;;;;;4947128;28;20427;-77
2022/09/13 08:59:46;;;;;;;3.30;2.50;;;17.20;96.30;;;;;;4947481;29;20426;-77
2022/09/13 09:02:43;;;;;;;2.97;2.60;;;17.60;96.30;;;;;;4955897;29;20926;-76
2022/09/13 09:05:16;;;;;;;2.40;2.20;;;17.90;96.30;;;;;;4955451;29;20440;-77
2022/09/13 09:07:49;;;;;;;2.50;2.30;;;18.30;96.30;;;;;;4955335;29;20454;-76
2022/09/13 09:10:16;;;;;;;2.10;2.00;;;18.70;96.30;;;;;;4968770;28;20993;-76
2022/09/13 09:12:48;;;;;;;2.40;1.83;;;19.20;96.30;;;;;;4974434;28;20425;-77
2022/09/13 09:15:24;;;;;;;5.20;2.10;;;19.30;96.30;;;;;;4974462;28;20409;-76
2022/09/13 09:18:05;;;;;;;2.43;2.13;;;19.80;96.30;;;;;;4974354;28;20401;-77
2022/09/13 09:20:41;;;;;;;3.50;2.37;;;20.20;96.30;;;;;;4974297;28;20436;-76
2022/09/13 09:23:34;;;;;;;3.33;2.33;;;20.30;96.30;;;;;;4989532;28;20512;-77
2022/09/13 09:26:30;;;;;;;4.47;2.07;;;20.60;96.30;;;;;;4969035;28;20425;-76
2022/09/13 09:29:09;;;;;;;5.90;2.43;;;20.90;96.30;;;;;;4974003;28;20461;-76
2022/09/13 09:31:53;;;;;;;4.63;1.93;;;21.60;96.30;;;;;;4974115;28;20471;-77
2022/09/13 09:34:43;;;;;;;2.00;1.80;;;22.90;96.30;;;;;;4973513;28;20398;-78
2022/09/13 09:37:23;;;;;;;1.73;1.60;;;23.50;96.30;;;;;;4974259;28;20421;-80
2022/09/13 09:39:49;;;;;;;2.27;1.50;;;23.40;96.30;;;;;;4974004;28;20536;-76
2022/09/13 09:42:18;;;;;;;2.07;1.87;;;23.40;96.30;;;;;;4971531;28;20447;-78
2022/09/13 09:44:49;;;;;;;2.20;2.10;;;24.00;96.30;;;;;;4954994;28;20422;-77
2022/09/13 09:47:19;;;;;;;3.30;1.97;;;24.40;96.30;;;;;;4954741;28;20468;-77
2022/09/13 09:52:55;;;;;;;2.30;1.50;;;24.70;96.30;;;;;;4935581;29;20426;-77
2022/09/13 09:55:27;;;;;;;2.77;1.50;;;25.70;96.30;;;;;;4935486;29;20396;-77
2022/09/13 09:57:57;;;;;;;5.20;1.63;;;26.30;96.30;;;;;;4935407;29;20450;-77
2022/09/13 10:00:27;;;;;;;2.37;1.87;;;25.80;95.60;;;;;;4934138;29;20566;-77
2022/09/13 10:02:58;;;;;;;2.20;1.93;;;25.00;96.30;;;;;;4935399;29;20422;-77
2022/09/13 10:05:25;;;;;;;3.10;2.03;;;23.80;96.30;;;;;;4935339;29;20402;-78
2022/09/13 10:08:04;;;;;;;1.80;1.47;;;23.80;96.30;;;;;;4935214;29;20510;-77
2022/09/13 10:10:41;;;;;;;1.70;1.60;;;23.80;96.30;;;;;;4966802;28;20424;-77
2022/09/13 10:13:14;;;;;;;6.73;2.07;;;23.40;96.30;;;;;;4973732;28;20409;-76
2022/09/13 10:16:02;;;;;;;2.73;1.80;;;23.80;96.30;;;;;;4973600;28;20413;-78
2022/09/13 10:18:32;;;;;;;1.73;1.63;;;24.70;96.30;;;;;;4974267;28;20503;-77
2022/09/13 10:26:15;;;;;;;2.40;1.70;;;26.60;94.60;;;;;;5217878;23;20488;-77
2022/09/13 10:29:02;;;;;;;1.70;1.33;;;25.90;94.30;;;;;;4953956;28;20402;-77
2022/09/13 10:31:35;;;;;;;1.93;1.57;;;26.10;92.60;;;;;;4954028;28;20479;-77
2022/09/13 10:34:25;;;;;;;2.47;1.37;;;25.90;96.30;;;;;;4954080;28;20414;-77
2022/09/13 10:37:13;;;;;;;3.83;1.43;;;26.00;96.30;;;;;;4951037;28;20422;-77
2022/09/13 10:39:57;;;;;;;3.70;1.50;;;25.50;95.20;;;;;;4953905;29;20493;-77
2022/09/13 10:42:25;;;;;;;4.50;1.90;;;24.30;95.50;;;;;;4972181;28;20444;-77
2022/09/13 10:44:55;;;;;;;4.57;1.83;;;23.40;96.30;;;;;;4974465;28;20764;-76
2022/09/13 10:47:33;;;;;;;1.90;1.80;;;22.80;96.30;;;;;;4977435;28;20469;-76
2022/09/13 10:50:24;;;;;;;3.33;1.70;;;22.50;96.30;;;;;;4977454;28;20492;-77
2022/09/13 10:52:59;;;;;;;2.03;1.40;;;23.20;96.30;;;;;;4957140;29;20407;-76
2022/09/13 10:55:30;;;;;;;2.23;1.30;;;23.80;96.30;;;;;;4957767;28;20402;-76
2022/09/13 10:58:16;;;;;;;1.47;1.37;;;23.90;96.30;;;;;;4957302;28;21168;-77
2022/09/13 11:01:01;;;;;;;1.60;1.40;;;23.80;96.30;;;;;;4957525;28;20453;-76
2022/09/13 11:04:05;;;;;;;2.43;1.63;;;23.70;96.30;;;;;;4956173;28;20823;-78
2022/09/13 11:06:55;;;;;;;1.63;1.53;;;24.10;96.30;;;;;;4949049;29;20550;-77
2022/09/13 11:09:56;;;;;;;6.70;1.30;;;24.20;96.30;;;;;;4963907;28;20409;-78
2022/09/13 11:12:45;;;;;;;1.37;1.10;;;24.10;96.30;;;;;;4976594;28;20459;-77
2022/09/13 11:15:28;;;;;;;3.90;1.17;;;23.60;96.30;;;;;;4976645;28;20413;-77
2022/09/13 11:17:57;;;;;;;2.60;1.03;;;23.20;96.30;;;;;;4976345;28;20472;-77
2022/09/13 11:20:29;;;;;;;1.73;1.50;;;23.10;96.30;;;;;;4976472;28;20889;-77
2022/09/13 11:23:13;;;;;;;1.70;1.13;;;23.20;96.30;;;;;;4976776;28;20432;-77
2022/09/13 11:25:56;;;;;;;5.93;2.00;;;23.50;96.30;;;;;;4976593;28;20841;-76
2022/09/13 11:28:43;;;;;;;1.60;1.30;;;23.30;96.30;;;;;;4976323;28;20413;-78
2022/09/13 11:31:28;;;;;;;1.70;1.27;;;23.60;96.30;;;;;;4971791;28;20480;-77
2022/09/13 11:34:24;;;;;;;1.30;1.20;;;23.10;96.30;;;;;;4955248;28;20442;-78
2022/09/13 11:37:20;;;;;;;6.03;1.50;;;23.30;96.30;;;;;;4955917;29;20454;-77
2022/09/13 11:39:57;;;;;;;3.53;1.57;;;23.70;96.30;;;;;;4956819;28;20910;-77
2022/09/13 11:42:40;;;;;;;1.80;1.47;;;23.70;96.30;;;;;;4974205;28;20463;-77
2022/09/13 11:45:20;;;;;;;1.63;1.50;;;23.80;96.30;;;;;;4966146;28;20406;-77
2022/09/13 11:47:58;;;;;;;1.63;1.53;;;23.70;96.30;;;;;;4956576;28;20472;-77
2022/09/13 11:50:43;;;;;;;1.77;1.67;;;24.20;96.30;;;;;;4956758;28;20407;-77
2022/09/13 11:53:26;;;;;;;1.63;1.47;;;24.30;96.30;;;;;;4956572;28;20414;-77
2022/09/13 11:56:11;;;;;;;2.53;1.60;;;25.00;96.30;;;;;;4956137;28;20410;-77
2022/09/13 11:58:47;;;;;;;2.37;1.30;;;25.20;96.30;;;;;;4956315;28;20469;-77
2022/09/13 12:01:18;;;;;;;1.47;1.20;;;25.20;95.90;;;;;;4956666;28;20447;-77
2022/09/13 12:03:58;;;;;;;2.20;1.40;;;24.90;95.80;;;;;;4956509;28;20513;-77
2022/09/13 12:06:32;;;;;;;2.13;1.93;;;24.70;95.00;;;;;;4956485;28;20477;-77
2022/09/13 12:09:06;;;;;;;1.63;1.53;;;24.80;95.80;;;;;;4956211;28;20426;-78
2022/09/13 12:11:35;;;;;;;2.70;1.20;;;24.80;96.30;;;;;;4956315;28;20449;-77
2022/09/13 12:14:10;;;;;;;1.60;1.20;;;24.40;94.50;;;;;;4956229;28;20414;-77
2022/09/13 12:16:49;;;;;;;2.33;1.10;;;24.40;94.40;;;;;;4956033;28;20414;-78
2022/09/13 12:19:33;;;;;;;1.50;1.40;;;23.80;96.30;;;;;;4952900;28;20626;-78
2022/09/13 12:22:01;;;;;;;1.43;1.10;;;23.80;96.30;;;;;;4956137;29;20442;-77
2022/09/13 12:24:40;;;;;;;1.23;1.00;;;23.90;96.30;;;;;;4956045;29;20931;-77
2022/09/13 12:27:23;;;;;;;3.53;1.10;;;23.50;95.50;;;;;;4955959;29;20469;-77
2022/09/13 12:30:20;;;;;;;1.20;1.00;;;23.30;96.30;;;;;;4954300;28;20996;-76
2022/09/13 12:32:47;;;;;;;1.20;1.10;;;23.30;95.00;;;;;;4971033;28;20437;-77
2022/09/13 12:35:24;;;;;;;3.97;0.90;;;22.90;95.80;;;;;;4936774;29;20450;-76
2022/09/13 12:38:16;;;;;;;1.97;1.00;;;23.00;96.30;;;;;;4936717;29;20427;-77
2022/09/13 12:41:07;;;;;;;1.20;1.00;;;23.30;96.30;;;;;;4946459;28;20778;-76
2022/09/13 12:43:53;;;;;;;1.50;1.13;;;23.10;96.30;;;;;;4975301;28;20418;-76
2022/09/13 12:47:04;;;;;;;1.20;0.90;;;23.30;96.30;;;;;;4975017;28;20465;-77
2022/09/13 12:49:41;;;;;;;1.40;1.20;;;23.50;95.10;;;;;;4964050;28;20430;-77
2022/09/13 12:52:25;;;;;;;1.73;1.47;;;23.40;96.30;;;;;;4936065;29;20814;-78
2022/09/13 12:55:29;;;;;;;1.93;1.00;;;23.40;95.60;;;;;;4943442;28;20417;-77
2022/09/13 12:58:15;;;;;;;1.30;1.10;;;23.40;96.30;;;;;;4946734;28;20881;-78
2022/09/13 13:01:11;;;;;;;1.40;1.17;;;23.20;96.30;;;;;;4947161;28;20470;-78
2022/09/13 13:03:55;;;;;;;1.60;1.20;;;22.90;96.30;;;;;;4943667;29;20525;-77
2022/09/13 13:06:35;;;;;;;1.40;0.87;;;22.60;96.30;;;;;;4936045;29;20486;-77
2022/09/13 13:09:06;;;;;;;2.20;1.20;;;22.90;96.30;;;;;;4935870;29;20490;-77
2022/09/13 13:11:43;;;;;;;1.80;1.17;;;23.00;96.30;;;;;;4935950;29;20980;-77
2022/09/13 13:14:45;;;;;;;2.87;1.00;;;22.80;96.30;;;;;;4941925;29;20446;-76
2022/09/13 13:17:32;;;;;;;2.53;1.10;;;22.70;96.30;;;;;;4954609;29;20426;-77
2022/09/13 13:19:58;;;;;;;1.50;1.30;;;22.30;96.30;;;;;;4955685;28;20429;-76
2022/09/13 13:22:41;;;;;;;1.63;1.00;;;22.00;96.30;;;;;;4949906;28;20889;-77
2022/09/13 13:25:37;;;;;;;3.33;1.20;;;22.10;96.30;;;;;;4940502;29;20254;-78
2022/09/13 13:28:21;;;;;;;1.80;1.17;;;22.10;96.30;;;;;;4937507;29;20463;-78
2022/09/13 13:30:52;;;;;;;1.60;1.30;;;22.30;96.30;;;;;;4944285;28;20438;-77
2022/09/13 13:33:22;;;;;;;4.97;1.63;;;22.30;96.30;;;;;;4937132;28;20442;-77
2022/09/13 13:35:48;;;;;;;5.10;1.20;;;22.20;96.30;;;;;;4934360;29;20415;-77
2022/09/13 13:38:18;;;;;;;3.40;1.20;;;22.20;96.30;;;;;;4934087;29;20503;-77
2022/09/13 13:41:28;;;;;;;2.33;1.27;;;22.60;96.30;;;;;;4950563;28;20776;-77
2022/09/13 13:43:53;;;;;;;2.90;1.30;;;22.30;96.30;;;;;;4946152;28;20463;-77
2022/09/13 13:46:26;;;;;;;1.33;1.20;;;22.10;96.30;;;;;;4961430;28;20496;-77
2022/09/13 13:48:51;;;;;;;1.30;1.20;;;22.20;96.30;;;;;;4967831;28;20246;-77
2022/09/13 13:51:23;;;;;;;1.60;1.20;;;22.40;96.30;;;;;;4948915;28;20439;-76
2022/09/13 13:53:55;;;;;;;2.50;1.13;;;22.10;96.30;;;;;;4949445;29;20646;-77
2022/09/13 13:56:48;;;;;;;4.00;1.70;;;22.30;96.30;;;;;;4949317;29;20535;-78
2022/09/13 13:59:27;;;;;;;2.23;1.07;;;22.50;96.30;;;;;;4953921;28;20427;-77
2022/09/13 14:01:58;;;;;;;2.83;1.20;;;22.30;96.30;;;;;;4946397;28;21083;-77
2022/09/13 14:04:59;;;;;;;1.50;1.40;;;22.10;96.30;;;;;;4948414;29;20424;-77
2022/09/13 14:07:51;;;;;;;3.00;1.50;;;22.20;96.30;;;;;;4935138;29;20483;-78
2022/09/13 14:10:27;;;;;;;2.30;1.47;;;22.30;96.30;;;;;;4950426;29;20933;-77
2022/09/13 14:13:21;;;;;;;2.57;1.40;;;22.10;96.30;;;;;;4939013;29;20411;-77
2022/09/13 14:16:08;;;;;;;4.87;1.17;;;22.00;96.30;;;;;;4946090;28;20522;-79
2022/09/13 14:18:47;;;;;;;1.93;1.17;;;22.00;96.30;;;;;;4934111;28;20426;-79
2022/09/13 14:21:26;;;;;;;3.07;1.20;;;21.70;96.30;;;;;;4934859;29;20465;-79
2022/09/13 14:24:23;;;;;;;27.93;8.77;;;21.70;96.30;;;;;;4937960;29;20411;-80
2022/09/13 14:26:56;;;;;;;2.83;1.23;;;21.40;96.30;;;;;;4934868;29;20452;-79
2022/09/13 14:29:24;;;;;;;2.13;1.40;;;21.40;96.30;;;;;;4934839;29;20455;-78
2022/09/13 14:31:52;;;;;;;3.43;1.30;;;21.30;96.30;;;;;;4934944;29;20439;-79
2022/09/13 14:34:23;;;;;;;2.07;1.30;;;21.30;96.30;;;;;;4934895;29;20411;-82
2022/09/13 14:37:00;;;;;;;6.00;1.47;;;21.20;96.30;;;;;;4935143;29;20439;-79
2022/09/13 14:39:27;;;;;;;3.00;1.27;;;21.40;96.30;;;;;;4933419;29;20462;-80
2022/09/13 14:42:09;;;;;;;1.63;1.20;;;21.60;96.30;;;;;;4957502;28;20509;-79
2022/09/13 14:44:35;;;;;;;2.33;1.50;;;21.80;96.30;;;;;;4954037;28;20481;-79
2022/09/13 14:47:21;;;;;;;1.30;1.10;;;21.90;96.30;;;;;;4954240;29;20462;-79
2022/09/13 14:49:51;;;;;;;4.93;1.23;;;21.70;96.30;;;;;;4954000;28;20151;-80
2022/09/13 14:52:26;;;;;;;1.80;1.40;;;21.70;96.30;;;;;;4942870;29;20440;-79
2022/09/13 14:54:57;;;;;;;4.27;1.60;;;21.50;96.30;;;;;;4953175;29;20891;-79
2022/09/13 14:57:33;;;;;;;3.33;1.60;;;21.60;96.30;;;;;;4955333;28;20468;-82
2022/09/13 15:00:04;;;;;;;2.20;1.57;;;21.50;96.30;;;;;;4955061;28;20422;-84
2022/09/13 15:02:35;;;;;;;1.30;1.03;;;21.50;96.30;;;;;;4947758;28;20435;-78
2022/09/13 15:05:03;;;;;;;2.50;1.20;;;21.50;96.30;;;;;;4955201;28;20783;-78
2022/09/13 15:07:37;;;;;;;1.43;1.33;;;21.50;96.30;;;;;;4943142;29;20462;-78
2022/09/13 15:10:10;;;;;;;2.40;1.50;;;21.30;96.30;;;;;;4963743;28;20504;-77
2022/09/13 15:12:47;;;;;;;2.10;1.90;;;21.30;96.30;;;;;;4964124;28;20426;-77
2022/09/13 15:15:18;;;;;;;7.10;1.30;;;21.30;96.30;;;;;;4934739;29;20411;-79
2022/09/13 15:17:55;;;;;;;2.00;1.30;;;21.30;96.30;;;;;;4934749;29;20498;-79
2022/09/13 15:20:22;;;;;;;1.20;1.10;;;21.30;96.30;;;;;;4937800;28;20483;-78
2022/09/13 15:22:50;;;;;;;5.07;1.77;;;21.40;96.30;;;;;;4945920;28;20415;-78
2022/09/13 15:25:26;;;;;;;1.60;1.50;;;21.60;96.30;;;;;;4933673;28;20451;-78
2022/09/13 15:27:53;;;;;;;1.40;1.30;;;21.50;96.30;;;;;;4961527;28;20493;-81
2022/09/13 15:30:30;;;;;;;1.50;1.40;;;21.60;96.30;;;;;;4962144;28;20968;-80
2022/09/13 15:33:11;;;;;;;2.40;1.43;;;21.80;96.30;;;;;;4957380;28;20387;-80
2022/09/13 15:35:40;;;;;;;3.40;1.90;;;21.80;96.30;;;;;;4957268;28;20466;-79
2022/09/13 15:38:17;;;;;;;1.53;1.43;;;22.00;96.30;;;;;;4956744;29;20414;-78
2022/09/13 15:40:46;;;;;;;1.50;1.40;;;22.00;96.30;;;;;;4962115;28;20528;-79
2022/09/13 15:43:11;;;;;;;5.37;1.90;;;22.30;96.30;;;;;;4993278;28;20424;-79
2022/09/13 15:45:37;;;;;;;3.30;1.60;;;22.30;96.30;;;;;;4975911;28;20417;-79
2022/09/13 15:48:03;;;;;;;4.53;2.10;;;22.40;96.30;;;;;;4976178;28;20197;-82
2022/09/13 15:50:30;;;;;;;2.80;1.90;;;22.10;96.30;;;;;;4976189;28;20658;-81
2022/09/13 15:53:00;;;;;;;3.10;1.80;;;22.00;96.30;;;;;;4976535;28;20409;-79
2022/09/13 15:55:27;;;;;;;1.87;1.67;;;21.90;96.30;;;;;;4977308;28;20914;-82
2022/09/13 15:57:53;;;;;;;3.50;1.80;;;21.70;96.30;;;;;;4957728;28;20929;-80
2022/09/13 16:00:22;;;;;;;1.60;1.50;;;21.70;96.30;;;;;;4957325;29;20418;-81
2022/09/13 16:02:48;;;;;;;4.83;1.83;;;21.40;96.30;;;;;;4956579;28;20753;-79
2022/09/13 16:05:14;;;;;;;1.80;1.70;;;21.40;96.30;;;;;;4956547;28;20414;-79
2022/09/13 16:07:40;;;;;;;2.17;1.50;;;21.30;96.30;;;;;;4956436;29;20562;-80
2022/09/13 16:10:21;;;;;;;5.90;1.80;;;21.20;96.30;;;;;;4955995;28;20682;-80
2022/09/13 16:12:46;;;;;;;10.80;1.70;;;21.00;96.30;;;;;;4954957;29;20449;-79
2022/09/13 16:15:13;;;;;;;2.17;1.73;;;20.90;96.30;;;;;;4956440;28;20443;-79
2022/09/13 16:17:39;;;;;;;4.30;1.67;;;21.00;96.30;;;;;;4956240;29;20583;-79
2022/09/13 16:20:07;;;;;;;2.63;1.97;;;21.00;96.30;;;;;;4956801;29;20469;-78
2022/09/13 17:05:31;;;;;;;2.50;1.57;;;19.40;96.30;;;;;;5444991;23;20489;-79
2022/09/13 17:07:56;;;;;;;5.50;3.03;;;19.20;96.30;;;;;;4955387;29;20549;-78
2022/09/13 17:10:23;;;;;;;1.93;1.30;;;19.20;96.30;;;;;;4955551;28;20249;-78
2022/09/13 17:12:48;;;;;;;1.93;1.70;;;19.10;96.30;;;;;;4956350;29;20257;-75
2022/09/13 17:15:14;;;;;;;1.80;1.20;;;19.00;96.30;;;;;;4955482;28;20538;-78
2022/09/13 17:17:40;;;;;;;2.50;1.33;;;19.00;96.30;;;;;;4956549;29;20175;-76
2022/09/13 17:20:08;;;;;;;1.83;1.60;;;19.00;96.30;;;;;;4959022;29;20194;-78
2022/09/13 17:22:35;;;;;;;1.33;1.23;;;18.70;96.30;;;;;;4956295;29;20211;-79
2022/09/13 17:25:01;;;;;;;2.60;1.50;;;18.50;96.30;;;;;;4956143;29;20450;-78
2022/09/13 17:27:27;;;;;;;2.30;1.50;;;18.20;96.30;;;;;;4954861;29;20494;-79
2022/09/13 17:29:52;;;;;;;2.00;1.67;;;18.00;96.30;;;;;;4954415;29;20207;-79
2022/09/13 17:32:18;;;;;;;7.23;3.97;;;17.90;96.30;;;;;;4955027;29;20647;-79
2022/09/13 17:34:44;;;;;;;7.00;4.53;;;17.80;96.30;;;;;;4956279;29;20178;-79
2022/09/13 17:37:10;;;;;;;6.03;5.43;;;17.80;96.30;;;;;;4954148;29;20407;-79
2022/09/13 17:39:35;;;;;;;2.00;1.80;;;17.80;96.30;;;;;;4955487;29;20311;-78
2022/09/13 17:42:01;;;;;;;2.10;1.07;;;17.80;96.30;;;;;;4947013;28;20581;-80
2022/09/13 17:44:26;;;;;;;7.83;4.60;;;17.70;96.30;;;;;;4935484;29;20273;-77
2022/09/13 17:46:52;;;;;;;19.80;15.70;;;17.80;96.30;;;;;;4934258;29;20206;-78
2022/09/13 17:49:17;;;;;;;14.97;12.00;;;17.90;96.30;;;;;;4935002;29;20756;-80
2022/09/13 17:51:42;;;;;;;2.70;2.50;;;17.80;96.30;;;;;;4935512;29;20187;-78
2022/09/13 17:54:10;;;;;;;8.13;5.23;;;17.80;96.30;;;;;;4934918;29;20207;-78
2022/09/13 17:56:40;;;;;;;4.97;3.23;;;17.80;96.30;;;;;;4954385;29;20218;-78
2022/09/13 17:59:18;;;;;;;13.20;11.90;;;17.80;96.30;;;;;;4951558;29;21248;-78
2022/09/13 18:01:47;;;;;;;6.47;5.90;;;17.80;96.30;;;;;;4966941;28;20434;-78
2022/09/13 18:04:14;;;;;;;3.73;2.87;;;17.80;96.30;;;;;;4954289;29;20765;-78
2022/09/13 18:06:41;;;;;;;4.30;3.90;;;17.80;96.30;;;;;;4949414;29;20483;-78
2022/09/13 18:09:11;;;;;;;4.40;2.50;;;17.90;96.30;;;;;;4934691;29;20419;-78
2022/09/13 18:11:36;;;;;;;8.53;5.17;;;17.90;96.30;;;;;;4934932;29;20466;-78
2022/09/13 18:14:03;;;;;;;7.33;2.80;;;17.80;96.30;;;;;;4935387;29;20850;-80